createdAt,value
2019-03-18T00:04:05.999Z,100091.48
2019-03-18T00:09:11.321Z,100091.89
2019-03-18T00:14:16.666Z,100074.55
2019-03-18T00:19:22.179Z,100054.66
2019-03-18T00:24:27.526Z,100066.19
2019-03-18T00:29:32.924Z,100084.82
2019-03-18T00:34:38.310Z,100073.58
2019-03-18T00:39:43.666Z,100085.70
2019-03-18T00:44:48.822Z,100088.86
2019-03-18T00:49:54.238Z,100084.86
2019-03-18T00:54:59.390Z,100097.72
2019-03-18T01:00:07.673Z,100111.73
2019-03-18T01:05:13.343Z,100099.58
2019-03-18T01:10:19.452Z,100105.16
2019-03-18T01:15:28.180Z,100105.85
2019-03-18T01:20:31.683Z,100112.16
2019-03-18T01:25:36.813Z,100097.28
2019-03-18T01:30:41.909Z,100083.72
2019-03-18T01:35:46.996Z,100088.12
2019-03-18T01:40:52.301Z,100091.55
2019-03-18T01:45:57.402Z,100088.74
2019-03-18T01:51:03.510Z,100089.11
2019-03-18T01:56:08.604Z,100083.70
2019-03-18T02:01:14.090Z,100086.64
2019-03-18T02:06:19.203Z,100086.02
2019-03-18T02:11:24.277Z,100086.67
2019-03-18T02:16:29.395Z,100087.25
2019-03-18T02:21:34.525Z,100080.17
2019-03-18T02:26:39.756Z,100069.67
2019-03-18T02:31:44.919Z,100062.32
2019-03-18T02:36:50.129Z,100072.47
2019-03-18T02:41:55.434Z,100064.38
2019-03-18T02:47:00.535Z,100063.34
2019-03-18T02:52:06.023Z,100074.36
2019-03-18T02:57:11.068Z,100062.94
2019-03-18T03:02:16.381Z,100055.17
2019-03-18T03:07:21.655Z,100060.87
2019-03-18T03:12:28.023Z,100069.17
2019-03-18T03:17:33.143Z,100082.38
2019-03-18T03:22:38.432Z,100085.17
2019-03-18T03:27:43.809Z,100086.26
2019-03-18T03:32:48.943Z,100092.80
2019-03-18T03:37:54.211Z,100087.50
2019-03-18T03:42:59.725Z,100085.59
2019-03-18T03:48:05.309Z,100080.41
2019-03-18T03:53:10.926Z,100080.41
2019-03-18T03:58:16.519Z,100080.82
2019-03-18T04:03:37.830Z,100089.05
2019-03-18T04:08:30.716Z,100085.46
2019-03-18T04:13:36.905Z,100089.09
2019-03-18T04:18:42.081Z,100090.94
2019-03-18T04:23:47.239Z,100093.84
2019-03-18T04:28:52.475Z,100081.37
2019-03-18T04:33:57.609Z,100104.00
2019-03-18T04:39:02.911Z,100106.41
2019-03-18T04:44:08.297Z,100106.45
2019-03-18T04:49:14.688Z,100109.04
2019-03-18T04:54:20.154Z,100126.69
2019-03-18T04:59:25.249Z,100129.30
2019-03-18T05:04:30.316Z,100133.22
2019-03-18T05:09:35.632Z,100129.20
2019-03-18T05:14:40.757Z,100140.81
2019-03-18T05:19:45.896Z,100140.50
2019-03-18T05:24:50.942Z,100150.38
2019-03-18T05:29:55.994Z,100165.33
2019-03-18T05:35:01.910Z,100152.44
2019-03-18T05:40:08.600Z,100165.68
2019-03-18T05:45:13.837Z,100173.59
2019-03-18T05:50:19.073Z,100165.39
2019-03-18T05:55:24.453Z,100187.52
2019-03-18T06:00:29.635Z,100177.20
2019-03-18T06:05:34.968Z,100201.11
2019-03-18T06:10:40.030Z,100192.55
2019-03-18T06:15:45.227Z,100184.20
2019-03-18T06:20:50.380Z,100191.17
2019-03-18T06:25:55.916Z,100188.18
2019-03-18T06:31:01.107Z,100186.75
2019-03-18T06:36:06.289Z,100189.47
2019-03-18T06:41:11.392Z,100194.14
2019-03-18T06:46:16.546Z,100181.97
2019-03-18T06:51:21.636Z,100198.05
2019-03-18T06:56:26.810Z,100177.20
2019-03-18T07:01:32.028Z,100185.36
2019-03-18T07:06:37.056Z,100185.94
2019-03-18T07:11:42.225Z,100187.13
2019-03-18T07:16:47.403Z,100201.41
2019-03-18T07:21:52.531Z,100192.89
2019-03-18T07:26:57.703Z,100198.43
2019-03-18T07:32:02.803Z,100214.37
2019-03-18T07:37:07.878Z,100216.09
2019-03-18T07:42:12.919Z,100207.41
2019-03-18T07:47:19.309Z,100197.59
2019-03-18T07:52:24.344Z,100197.80
2019-03-18T07:57:32.540Z,100210.57
2019-03-18T08:02:36.429Z,100202.87
2019-03-18T08:07:41.642Z,100227.94
2019-03-18T08:12:46.770Z,100224.64
2019-03-18T08:17:51.803Z,100246.55
2019-03-18T08:22:56.936Z,100231.45
2019-03-18T08:28:02.094Z,100246.41
2019-03-18T08:33:07.242Z,100261.13
2019-03-18T08:38:12.318Z,100267.58
2019-03-18T08:43:17.410Z,100260.13
2019-03-18T08:48:22.463Z,100263.06
2019-03-18T08:53:27.526Z,100254.11
2019-03-18T08:58:32.978Z,100273.47
2019-03-18T09:03:38.107Z,100261.28
2019-03-18T09:08:43.268Z,100256.80
2019-03-18T09:13:48.383Z,100264.86
2019-03-18T09:18:53.501Z,100265.74
2019-03-18T09:23:58.573Z,100273.63
2019-03-18T09:29:03.756Z,100273.05
2019-03-18T09:34:08.971Z,100274.13
2019-03-18T09:39:14.199Z,100282.86
2019-03-18T09:44:19.313Z,100291.13
2019-03-18T09:49:24.389Z,100290.20
2019-03-18T09:54:29.554Z,100285.23
2019-03-18T09:59:34.734Z,100296.91
2019-03-18T10:04:39.821Z,100306.09
2019-03-18T10:09:44.961Z,100318.34
2019-03-18T10:14:50.221Z,100321.11
2019-03-18T10:19:55.331Z,100333.05
2019-03-18T10:25:00.418Z,100323.83
2019-03-18T10:30:08.012Z,100343.73
2019-03-18T10:35:13.262Z,100349.75
2019-03-18T10:40:18.365Z,100354.02
2019-03-18T10:45:25.960Z,100366.14
2019-03-18T10:50:31.450Z,100351.06
2019-03-18T10:55:36.767Z,100358.50
2019-03-18T11:00:41.897Z,100368.05
2019-03-18T11:05:47.007Z,100387.73
2019-03-18T11:10:52.211Z,100380.66
2019-03-18T11:15:57.250Z,100377.66
2019-03-18T11:21:02.303Z,100381.38
2019-03-18T11:26:08.226Z,100369.22
2019-03-18T11:31:13.276Z,100379.42
2019-03-18T11:36:18.425Z,100382.30
2019-03-18T11:41:23.588Z,100384.65
2019-03-18T11:46:28.732Z,100382.42
2019-03-18T11:51:33.860Z,100380.11
2019-03-18T11:56:38.988Z,100397.20
2019-03-18T12:01:44.266Z,100397.58
2019-03-18T12:06:49.304Z,100391.27
2019-03-18T12:11:55.499Z,100383.86
2019-03-18T12:17:00.591Z,100405.56
2019-03-18T12:22:05.792Z,100396.82
2019-03-18T12:27:10.876Z,100400.05
2019-03-18T12:32:15.938Z,100401.00
2019-03-18T12:37:21.045Z,100423.64
2019-03-18T12:42:26.172Z,100412.05
2019-03-18T12:47:31.277Z,100403.56
2019-03-18T12:52:36.292Z,100398.56
2019-03-18T12:57:41.511Z,100398.91
2019-03-18T13:02:46.933Z,100390.70
2019-03-18T13:07:52.118Z,100388.66
2019-03-18T13:12:57.222Z,100383.95
2019-03-18T13:18:02.446Z,100401.98
2019-03-18T13:23:07.540Z,100388.01
2019-03-18T13:28:12.600Z,100383.02
2019-03-18T13:33:17.711Z,100392.15
2019-03-18T13:38:22.754Z,100371.22
2019-03-18T13:43:28.155Z,100384.00
2019-03-18T13:48:33.515Z,100391.45
2019-03-18T13:53:38.535Z,100390.94
2019-03-18T13:58:43.793Z,100395.56
2019-03-18T14:03:49.069Z,100399.81
2019-03-18T14:08:54.151Z,100390.84
2019-03-18T14:13:59.272Z,100389.84
2019-03-18T14:19:04.954Z,100383.22
2019-03-18T14:24:10.058Z,100390.22
2019-03-18T14:29:15.192Z,100375.61
2019-03-18T14:34:20.358Z,100391.42
2019-03-18T14:39:25.400Z,100388.48
2019-03-18T14:44:30.500Z,100412.94
2019-03-18T14:49:35.554Z,100415.01
2019-03-18T14:54:40.706Z,100424.00
2019-03-18T14:59:45.754Z,100424.35
2019-03-18T15:04:51.241Z,100410.58
2019-03-18T15:09:56.335Z,100413.30
2019-03-18T15:15:01.475Z,100400.06
2019-03-18T15:20:12.578Z,100397.27
2019-03-18T15:25:23.770Z,100404.52
2019-03-18T15:30:28.931Z,100412.79
2019-03-18T15:35:34.000Z,100433.08
2019-03-18T15:40:39.144Z,100446.19
2019-03-18T15:45:44.372Z,100448.30
2019-03-18T15:50:49.470Z,100436.59
2019-03-18T15:55:54.693Z,100429.25
2019-03-18T16:00:59.872Z,100436.77
2019-03-18T16:06:05.447Z,100434.89
2019-03-18T16:11:10.623Z,100431.61
2019-03-18T16:16:15.711Z,100445.52
2019-03-18T16:21:20.833Z,100460.28
2019-03-18T16:26:25.982Z,100452.89
2019-03-18T16:31:31.154Z,100466.54
2019-03-18T16:36:36.291Z,100457.98
2019-03-18T16:41:41.350Z,100473.77
2019-03-18T16:46:46.436Z,100489.90
2019-03-18T16:51:51.635Z,100496.77
2019-03-18T16:56:56.948Z,100492.87
2019-03-18T17:02:02.035Z,100517.64
2019-03-18T17:07:07.530Z,100508.89
2019-03-18T17:12:12.674Z,100526.08
2019-03-18T17:17:17.989Z,100542.02
2019-03-18T17:22:23.022Z,100559.26
2019-03-18T17:27:28.154Z,100570.79
2019-03-18T17:32:33.401Z,100617.02
2019-03-18T17:37:38.481Z,100643.01
2019-03-18T17:42:43.718Z,100626.27
2019-03-18T17:47:48.746Z,100632.52
2019-03-18T17:53:02.204Z,100632.52
2019-03-18T17:58:01.869Z,100650.09
2019-03-18T18:03:07.098Z,100660.45
2019-03-18T18:08:12.689Z,100642.44
2019-03-18T18:13:17.906Z,100659.28
2019-03-18T18:18:22.974Z,100660.92
2019-03-18T18:23:28.144Z,100664.52
2019-03-18T18:28:33.193Z,100669.01
2019-03-18T18:33:38.402Z,100671.44
2019-03-18T18:38:43.546Z,100688.78
2019-03-18T18:43:48.709Z,100698.54
2019-03-18T18:48:53.821Z,100710.00
2019-03-18T18:53:58.962Z,100714.92
2019-03-18T18:59:04.415Z,100714.33
2019-03-18T19:04:09.612Z,100726.39
2019-03-18T19:09:15.089Z,100730.15
2019-03-18T19:14:20.287Z,100728.24
2019-03-18T19:19:25.504Z,100733.03
2019-03-18T19:24:30.653Z,100739.92
2019-03-18T19:29:36.125Z,100723.92
2019-03-18T19:34:41.609Z,100724.94
2019-03-18T19:39:46.824Z,100722.73
2019-03-18T19:44:51.938Z,100734.06
2019-03-18T19:49:57.004Z,100749.66
2019-03-18T19:55:03.038Z,100750.18
2019-03-18T20:00:14.175Z,100760.17
2019-03-18T20:05:19.385Z,100763.21
2019-03-18T20:10:24.826Z,100770.86
2019-03-18T20:15:30.153Z,100767.77
2019-03-18T20:20:35.318Z,100771.48
2019-03-18T20:25:40.607Z,100776.19
2019-03-18T20:30:45.844Z,100788.37
2019-03-18T20:35:50.956Z,100791.62
2019-03-18T20:40:56.129Z,100800.09
2019-03-18T20:46:01.220Z,100800.77
2019-03-18T20:51:06.445Z,100794.97
2019-03-18T20:56:12.833Z,100794.21
2019-03-18T21:01:18.024Z,100812.05
2019-03-18T21:06:23.091Z,100817.70
2019-03-18T21:11:28.642Z,100818.53
2019-03-18T21:16:33.824Z,100828.20
2019-03-18T21:21:39.031Z,100839.91
2019-03-18T21:26:44.164Z,100843.31
2019-03-18T21:31:49.456Z,100846.28
2019-03-18T21:36:54.675Z,100853.28
2019-03-18T21:41:59.781Z,100858.59
2019-03-18T21:47:04.974Z,100861.64
2019-03-18T21:52:10.065Z,100868.92
2019-03-18T21:57:15.437Z,100882.43
2019-03-18T22:02:20.537Z,100889.09
2019-03-18T22:07:25.662Z,100895.83
2019-03-18T22:12:30.875Z,100899.24
2019-03-18T22:17:35.984Z,100900.60
2019-03-18T22:22:41.120Z,100903.02
2019-03-18T22:27:46.348Z,100901.82
2019-03-18T22:32:51.450Z,100898.81
2019-03-18T22:37:56.549Z,100913.01
2019-03-18T22:43:01.631Z,100916.80
2019-03-18T22:48:06.844Z,100937.73
2019-03-18T22:53:12.004Z,100941.34
2019-03-18T22:58:19.310Z,100949.16
2019-03-18T23:03:23.952Z,100959.50
2019-03-18T23:08:29.563Z,100957.88
2019-03-18T23:13:34.774Z,100979.59
2019-03-18T23:18:39.927Z,100973.36
2019-03-18T23:23:45.186Z,100982.92
2019-03-18T23:28:50.310Z,100983.88
2019-03-18T23:33:55.642Z,100993.58
2019-03-18T23:39:00.901Z,100996.04
2019-03-18T23:44:07.400Z,101006.27
2019-03-18T23:49:12.496Z,101006.27
2019-03-18T23:54:17.585Z,101010.48
2019-03-18T23:59:22.578Z,101003.39
